sensor_id;sensor_type;location;lat;lon;timestamp;pressure;altitude;pressure_sealevel;temperature;humidity
29045;BME280;16133;49.486;12.176;2023-03-12T00:00:38;96991.47;;;-5.35;100.00
29045;BME280;16133;49.486;12.176;2023-03-12T00:03:04;96990.81;;;-5.24;100.00
29045;BME280;16133;49.486;12.176;2023-03-12T00:05:29;96994.41;;;-5.12;100.00
29045;BME280;16133;49.486;12.176;2023-03-12T00:07:54;96992.94;;;-5.02;100.00
29045;BME280;16133;49.486;12.176;2023-03-12T00:10:24;96981.56;;;-5.00;100.00
29045;BME280;16133;49.486;12.176;2023-03-12T00:12:49;96977.66;;;-4.93;100.00
29045;BME280;16133;49.486;12.176;2023-03-12T00:15:14;96986.41;;;-4.81;100.00
29045;BME280;16133;49.486;12.176;2023-03-12T00:17:40;96984.19;;;-4.73;100.00
29045;BME280;16133;49.486;12.176;2023-03-12T00:20:05;96969.69;;;-4.75;100.00
29045;BME280;16133;49.486;12.176;2023-03-12T00:22:31;96973.44;;;-4.67;100.00
29045;BME280;16133;49.486;12.176;2023-03-12T00:24:57;96978.47;;;-4.51;100.00
29045;BME280;16133;49.486;12.176;2023-03-12T00:27:23;96976.41;;;-4.46;100.00
29045;BME280;16133;49.486;12.176;2023-03-12T00:29:49;96980.75;;;-4.47;100.00
29045;BME280;16133;49.486;12.176;2023-03-12T00:32:14;96983.91;;;-4.42;100.00
29045;BME280;16133;49.486;12.176;2023-03-12T00:34:40;96985.03;;;-4.46;100.00
29045;BME280;16133;49.486;12.176;2023-03-12T00:37:06;96993.16;;;-4.52;100.00
29045;BME280;16133;49.486;12.176;2023-03-12T00:39:32;97003.38;;;-4.63;100.00
29045;BME280;16133;49.486;12.176;2023-03-12T00:41:58;96990.97;;;-4.85;100.00
29045;BME280;16133;49.486;12.176;2023-03-12T00:44:23;97010.81;;;-4.85;100.00
29045;BME280;16133;49.486;12.176;2023-03-12T00:46:48;97019.13;;;-4.94;100.00
29045;BME280;16133;49.486;12.176;2023-03-12T00:49:13;97027.47;;;-5.03;100.00
29045;BME280;16133;49.486;12.176;2023-03-12T00:51:39;97022.13;;;-5.14;100.00
29045;BME280;16133;49.486;12.176;2023-03-12T00:54:04;97033.78;;;-5.21;100.00
29045;BME280;16133;49.486;12.176;2023-03-12T00:56:30;97028.78;;;-5.24;100.00
29045;BME280;16133;49.486;12.176;2023-03-12T00:58:55;97028.97;;;-5.27;100.00
29045;BME280;16133;49.486;12.176;2023-03-12T01:01:21;97031.47;;;-5.26;100.00
29045;BME280;16133;49.486;12.176;2023-03-12T01:03:46;97030.25;;;-5.20;100.00
29045;BME280;16133;49.486;12.176;2023-03-12T01:06:12;97033.31;;;-5.14;100.00
29045;BME280;16133;49.486;12.176;2023-03-12T01:08:37;97017.69;;;-5.12;100.00
29045;BME280;16133;49.486;12.176;2023-03-12T01:11:03;97019.16;;;-5.08;100.00
29045;BME280;16133;49.486;12.176;2023-03-12T01:13:29;97014.44;;;-5.02;100.00
29045;BME280;16133;49.486;12.176;2023-03-12T01:15:54;97011.03;;;-5.02;100.00
29045;BME280;16133;49.486;12.176;2023-03-12T01:18:19;97010.50;;;-5.07;100.00
29045;BME280;16133;49.486;12.176;2023-03-12T01:20:45;97013.25;;;-4.96;100.00
29045;BME280;16133;49.486;12.176;2023-03-12T01:23:11;97013.03;;;-4.93;100.00
29045;BME280;16133;49.486;12.176;2023-03-12T01:25:36;97005.09;;;-4.90;100.00
29045;BME280;16133;49.486;12.176;2023-03-12T01:28:01;96966.53;;;-5.07;100.00
29045;BME280;16133;49.486;12.176;2023-03-12T01:30:27;97009.88;;;-4.70;100.00
29045;BME280;16133;49.486;12.176;2023-03-12T01:32:53;97005.97;;;-4.63;100.00
29045;BME280;16133;49.486;12.176;2023-03-12T01:35:18;96998.66;;;-4.56;100.00
29045;BME280;16133;49.486;12.176;2023-03-12T01:37:44;96994.13;;;-4.53;100.00
29045;BME280;16133;49.486;12.176;2023-03-12T01:40:20;96989.66;;;-4.51;100.00
29045;BME280;16133;49.486;12.176;2023-03-12T01:42:56;96984.47;;;-4.51;100.00
29045;BME280;16133;49.486;12.176;2023-03-12T01:48:17;96986.16;;;-4.50;100.00
29045;BME280;16133;49.486;12.176;2023-03-12T01:50:43;96989.44;;;-4.48;100.00
29045;BME280;16133;49.486;12.176;2023-03-12T01:53:09;96986.16;;;-4.50;100.00
29045;BME280;16133;49.486;12.176;2023-03-12T01:55:35;96990.69;;;-4.53;100.00
29045;BME280;16133;49.486;12.176;2023-03-12T01:58:01;96989.22;;;-4.57;100.00
29045;BME280;16133;49.486;12.176;2023-03-12T02:00:26;96987.84;;;-4.63;100.00
29045;BME280;16133;49.486;12.176;2023-03-12T02:02:56;96999.50;;;-4.70;100.00
29045;BME280;16133;49.486;12.176;2023-03-12T02:05:32;97002.50;;;-4.76;100.00
29045;BME280;16133;49.486;12.176;2023-03-12T02:08:00;97005.25;;;-4.79;100.00
29045;BME280;16133;49.486;12.176;2023-03-12T02:10:25;97001.09;;;-4.82;100.00
29045;BME280;16133;49.486;12.176;2023-03-12T02:12:51;97007.19;;;-4.83;100.00
29045;BME280;16133;49.486;12.176;2023-03-12T02:15:17;97004.72;;;-4.84;100.00
29045;BME280;16133;49.486;12.176;2023-03-12T02:17:43;97007.19;;;-4.83;100.00
29045;BME280;16133;49.486;12.176;2023-03-12T02:23:02;97011.91;;;-4.75;100.00
29045;BME280;16133;49.486;12.176;2023-03-12T02:25:41;97014.19;;;-4.70;100.00
29045;BME280;16133;49.486;12.176;2023-03-12T02:28:12;97013.72;;;-4.63;100.00
29045;BME280;16133;49.486;12.176;2023-03-12T02:30:39;97010.38;;;-4.51;100.00
29045;BME280;16133;49.486;12.176;2023-03-12T02:33:07;96997.69;;;-4.41;100.00
29045;BME280;16133;49.486;12.176;2023-03-12T02:35:33;97003.28;;;-4.35;100.00
29045;BME280;16133;49.486;12.176;2023-03-12T02:37:59;96996.97;;;-4.30;100.00
29045;BME280;16133;49.486;12.176;2023-03-12T02:40:35;96997.41;;;-4.24;100.00
29045;BME280;16133;49.486;12.176;2023-03-12T02:43:04;96991.84;;;-4.18;100.00
29045;BME280;16133;49.486;12.176;2023-03-12T02:45:30;96994.31;;;-4.16;100.00
29045;BME280;16133;49.486;12.176;2023-03-12T02:47:56;96987.88;;;-4.23;100.00
29045;BME280;16133;49.486;12.176;2023-03-12T02:50:21;97001.25;;;-4.17;100.00
29045;BME280;16133;49.486;12.176;2023-03-12T02:52:47;97001.38;;;-4.18;100.00
29045;BME280;16133;49.486;12.176;2023-03-12T02:55:12;97003.00;;;-4.17;100.00
29045;BME280;16133;49.486;12.176;2023-03-12T02:57:38;96990.56;;;-4.25;100.00
29045;BME280;16133;49.486;12.176;2023-03-12T03:00:07;97006.72;;;-4.21;100.00
29045;BME280;16133;49.486;12.176;2023-03-12T03:02:37;97008.19;;;-4.30;100.00
29045;BME280;16133;49.486;12.176;2023-03-12T03:05:03;97021.63;;;-4.38;100.00
29045;BME280;16133;49.486;12.176;2023-03-12T03:07:29;97026.53;;;-4.47;100.00
29045;BME280;16133;49.486;12.176;2023-03-12T03:09:54;97033.13;;;-4.56;100.00
29045;BME280;16133;49.486;12.176;2023-03-12T03:12:20;97029.66;;;-4.69;100.00
29045;BME280;16133;49.486;12.176;2023-03-12T03:14:47;97032.06;;;-4.80;100.00
29045;BME280;16133;49.486;12.176;2023-03-12T03:17:12;97045.69;;;-4.91;100.00
29045;BME280;16133;49.486;12.176;2023-03-12T03:19:38;97050.50;;;-4.99;100.00
29045;BME280;16133;49.486;12.176;2023-03-12T03:22:03;97055.28;;;-5.07;100.00
29045;BME280;16133;49.486;12.176;2023-03-12T03:24:29;97055.75;;;-5.14;100.00
29045;BME280;16133;49.486;12.176;2023-03-12T03:26:54;97062.22;;;-5.21;100.00
29045;BME280;16133;49.486;12.176;2023-03-12T03:29:20;97067.03;;;-5.29;100.00
29045;BME280;16133;49.486;12.176;2023-03-12T03:31:45;97068.19;;;-5.35;100.00
29045;BME280;16133;49.486;12.176;2023-03-12T03:34:11;97062.56;;;-5.42;100.00
29045;BME280;16133;49.486;12.176;2023-03-12T03:36:36;97063.66;;;-5.46;100.00
29045;BME280;16133;49.486;12.176;2023-03-12T03:39:02;97062.19;;;-5.50;100.00
29045;BME280;16133;49.486;12.176;2023-03-12T03:41:29;97057.94;;;-5.51;100.00
29045;BME280;16133;49.486;12.176;2023-03-12T03:43:57;97071.03;;;-5.54;100.00
29045;BME280;16133;49.486;12.176;2023-03-12T03:46:23;97068.38;;;-5.52;100.00
29045;BME280;16133;49.486;12.176;2023-03-12T03:48:48;97070.03;;;-5.51;100.00
29045;BME280;16133;49.486;12.176;2023-03-12T03:51:15;97064.59;;;-5.47;100.00
29045;BME280;16133;49.486;12.176;2023-03-12T03:53:41;97067.81;;;-5.43;100.00
29045;BME280;16133;49.486;12.176;2023-03-12T03:56:08;97070.78;;;-5.35;100.00
29045;BME280;16133;49.486;12.176;2023-03-12T03:58:34;97072.91;;;-5.27;100.00
29045;BME280;16133;49.486;12.176;2023-03-12T04:01:00;97069.03;;;-5.20;100.00
29045;BME280;16133;49.486;12.176;2023-03-12T04:03:25;97068.50;;;-5.11;100.00
29045;BME280;16133;49.486;12.176;2023-03-12T04:06:09;97060.19;;;-5.02;100.00
29045;BME280;16133;49.486;12.176;2023-03-12T04:08:36;97062.13;;;-4.92;100.00
29045;BME280;16133;49.486;12.176;2023-03-12T04:11:14;97061.47;;;-4.81;100.00
29045;BME280;16133;49.486;12.176;2023-03-12T04:13:40;97063.50;;;-4.72;100.00
29045;BME280;16133;49.486;12.176;2023-03-12T04:16:06;97043.16;;;-4.64;100.00
29045;BME280;16133;49.486;12.176;2023-03-12T04:18:32;97037.66;;;-4.59;100.00
29045;BME280;16133;49.486;12.176;2023-03-12T04:20:58;97042.19;;;-4.49;100.00
29045;BME280;16133;49.486;12.176;2023-03-12T04:23:23;97033.28;;;-4.45;100.00
29045;BME280;16133;49.486;12.176;2023-03-12T04:25:49;97033.09;;;-4.42;100.00
29045;BME280;16133;49.486;12.176;2023-03-12T04:28:14;97034.56;;;-4.38;100.00
29045;BME280;16133;49.486;12.176;2023-03-12T04:30:39;97030.84;;;-4.33;100.00
29045;BME280;16133;49.486;12.176;2023-03-12T04:33:05;97026.94;;;-4.26;100.00
29045;BME280;16133;49.486;12.176;2023-03-12T04:35:31;97023.09;;;-4.21;100.00
29045;BME280;16133;49.486;12.176;2023-03-12T04:37:57;97030.59;;;-4.16;100.00
29045;BME280;16133;49.486;12.176;2023-03-12T04:40:22;97031.13;;;-4.11;100.00
29045;BME280;16133;49.486;12.176;2023-03-12T04:42:47;97016.31;;;-4.09;100.00
29045;BME280;16133;49.486;12.176;2023-03-12T04:45:13;97026.28;;;-4.03;100.00
29045;BME280;16133;49.486;12.176;2023-03-12T04:47:38;97031.19;;;-3.99;100.00
29045;BME280;16133;49.486;12.176;2023-03-12T04:50:04;97036.03;;;-3.94;100.00
29045;BME280;16133;49.486;12.176;2023-03-12T04:52:30;97025.50;;;-3.91;100.00
29045;BME280;16133;49.486;12.176;2023-03-12T04:54:55;97032.22;;;-3.89;100.00
29045;BME280;16133;49.486;12.176;2023-03-12T04:57:20;97029.44;;;-3.86;100.00
29045;BME280;16133;49.486;12.176;2023-03-12T04:59:46;97028.38;;;-3.83;100.00
29045;BME280;16133;49.486;12.176;2023-03-12T05:02:12;97031.72;;;-3.81;100.00
29045;BME280;16133;49.486;12.176;2023-03-12T05:04:37;97036.69;;;-3.78;100.00
29045;BME280;16133;49.486;12.176;2023-03-12T05:07:02;97041.78;;;-3.76;100.00
29045;BME280;16133;49.486;12.176;2023-03-12T05:09:28;97028.63;;;-3.73;100.00
29045;BME280;16133;49.486;12.176;2023-03-12T05:11:54;97031.13;;;-3.72;100.00
29045;BME280;16133;49.486;12.176;2023-03-12T05:14:19;97027.50;;;-3.69;100.00
29045;BME280;16133;49.486;12.176;2023-03-12T05:16:44;97030.78;;;-3.67;100.00
29045;BME280;16133;49.486;12.176;2023-03-12T05:19:10;97027.19;;;-3.65;100.00
29045;BME280;16133;49.486;12.176;2023-03-12T05:21:35;97033.28;;;-3.66;100.00
29045;BME280;16133;49.486;12.176;2023-03-12T05:24:01;97031.53;;;-3.65;100.00
29045;BME280;16133;49.486;12.176;2023-03-12T05:26:28;97037.75;;;-3.68;100.00
29045;BME280;16133;49.486;12.176;2023-03-12T05:28:56;97039.81;;;-3.73;100.00
29045;BME280;16133;49.486;12.176;2023-03-12T05:31:21;97052.25;;;-3.78;100.00
29045;BME280;16133;49.486;12.176;2023-03-12T05:33:47;97046.34;;;-3.80;100.00
29045;BME280;16133;49.486;12.176;2023-03-12T05:36:13;97051.41;;;-3.78;100.00
29045;BME280;16133;49.486;12.176;2023-03-12T05:38:39;97047.81;;;-3.76;100.00
29045;BME280;16133;49.486;12.176;2023-03-12T05:41:05;97055.38;;;-3.73;100.00
29045;BME280;16133;49.486;12.176;2023-03-12T05:43:31;97049.91;;;-3.68;100.00
29045;BME280;16133;49.486;12.176;2023-03-12T05:45:58;97049.69;;;-3.65;100.00
29045;BME280;16133;49.486;12.176;2023-03-12T05:48:25;97048.56;;;-3.61;100.00
29045;BME280;16133;49.486;12.176;2023-03-12T05:50:50;97055.38;;;-3.60;100.00
29045;BME280;16133;49.486;12.176;2023-03-12T05:53:15;97041.50;;;-3.59;100.00
29045;BME280;16133;49.486;12.176;2023-03-12T05:55:41;97043.25;;;-3.60;100.00
29045;BME280;16133;49.486;12.176;2023-03-12T05:58:06;97045.66;;;-3.57;100.00
29045;BME280;16133;49.486;12.176;2023-03-12T06:00:34;97047.13;;;-3.53;100.00
29045;BME280;16133;49.486;12.176;2023-03-12T06:03:06;97046.16;;;-3.52;100.00
29045;BME280;16133;49.486;12.176;2023-03-12T06:05:33;97046.28;;;-3.41;100.00
29045;BME280;16133;49.486;12.176;2023-03-12T06:07:59;97045.75;;;-3.33;100.00
29045;BME280;16133;49.486;12.176;2023-03-12T06:10:25;97052.22;;;-3.26;100.00
29045;BME280;16133;49.486;12.176;2023-03-12T06:12:50;97042.78;;;-3.14;100.00
29045;BME280;16133;49.486;12.176;2023-03-12T06:15:16;96998.06;;;-3.30;100.00
29045;BME280;16133;49.486;12.176;2023-03-12T06:17:41;97037.75;;;-2.92;100.00
29045;BME280;16133;49.486;12.176;2023-03-12T06:20:07;97034.41;;;-2.81;100.00
29045;BME280;16133;49.486;12.176;2023-03-12T06:22:33;97037.31;;;-2.73;100.00
29045;BME280;16133;49.486;12.176;2023-03-12T06:24:58;97031.25;;;-2.61;100.00
29045;BME280;16133;49.486;12.176;2023-03-12T06:27:24;97035.78;;;-2.52;100.00
29045;BME280;16133;49.486;12.176;2023-03-12T06:29:49;97012.72;;;-2.57;100.00
29045;BME280;16133;49.486;12.176;2023-03-12T06:32:16;97039.56;;;-2.32;100.00
29045;BME280;16133;49.486;12.176;2023-03-12T06:34:42;97036.31;;;-2.23;100.00
29045;BME280;16133;49.486;12.176;2023-03-12T06:37:08;97038.97;;;-2.12;100.00
29045;BME280;16133;49.486;12.176;2023-03-12T06:39:33;97038.28;;;-2.03;100.00
29045;BME280;16133;49.486;12.176;2023-03-12T06:41:58;97050.75;;;-1.96;100.00
29045;BME280;16133;49.486;12.176;2023-03-12T06:44:24;97052.31;;;-1.93;100.00
29045;BME280;16133;49.486;12.176;2023-03-12T06:46:49;97057.03;;;-1.87;100.00
29045;BME280;16133;49.486;12.176;2023-03-12T06:49:16;97052.13;;;-1.79;100.00
29045;BME280;16133;49.486;12.176;2023-03-12T06:51:42;97053.81;;;-1.67;100.00
29045;BME280;16133;49.486;12.176;2023-03-12T06:54:07;97061.22;;;-1.50;100.00
29045;BME280;16133;49.486;12.176;2023-03-12T06:56:33;97063.47;;;-1.34;100.00
29045;BME280;16133;49.486;12.176;2023-03-12T06:58:58;97055.59;;;-1.21;100.00
29045;BME280;16133;49.486;12.176;2023-03-12T07:01:23;97042.34;;;-1.18;100.00
29045;BME280;16133;49.486;12.176;2023-03-12T07:03:49;97073.97;;;-0.89;100.00
29045;BME280;16133;49.486;12.176;2023-03-12T07:06:19;97062.97;;;-0.71;100.00
29045;BME280;16133;49.486;12.176;2023-03-12T07:08:46;97065.56;;;-0.49;100.00
29045;BME280;16133;49.486;12.176;2023-03-12T07:11:12;97069.78;;;-0.25;100.00
29045;BME280;16133;49.486;12.176;2023-03-12T07:13:39;97080.31;;;-0.05;100.00
29045;BME280;16133;49.486;12.176;2023-03-12T07:16:05;97090.44;;;0.10;100.00
29045;BME280;16133;49.486;12.176;2023-03-12T07:18:30;97095.75;;;0.19;100.00
29045;BME280;16133;49.486;12.176;2023-03-12T07:20:56;97103.00;;;0.27;100.00
29045;BME280;16133;49.486;12.176;2023-03-12T07:23:21;97113.16;;;0.30;100.00
29045;BME280;16133;49.486;12.176;2023-03-12T07:25:47;97124.19;;;0.33;100.00
29045;BME280;16133;49.486;12.176;2023-03-12T07:28:14;97125.34;;;0.40;100.00
29045;BME280;16133;49.486;12.176;2023-03-12T07:30:40;97131.09;;;0.55;100.00
29045;BME280;16133;49.486;12.176;2023-03-12T07:33:10;97131.84;;;0.78;100.00
29045;BME280;16133;49.486;12.176;2023-03-12T07:35:37;97136.81;;;1.02;100.00
29045;BME280;16133;49.486;12.176;2023-03-12T07:38:04;97136.81;;;1.22;100.00
29045;BME280;16133;49.486;12.176;2023-03-12T07:40:30;97136.75;;;1.33;100.00
29045;BME280;16133;49.486;12.176;2023-03-12T07:42:56;97132.97;;;1.47;100.00
29045;BME280;16133;49.486;12.176;2023-03-12T07:45:22;97133.81;;;1.57;100.00
29045;BME280;16133;49.486;12.176;2023-03-12T07:47:48;97135.81;;;1.65;100.00
29045;BME280;16133;49.486;12.176;2023-03-12T07:50:14;97134.88;;;1.75;100.00
29045;BME280;16133;49.486;12.176;2023-03-12T07:52:39;97126.38;;;1.83;100.00
29045;BME280;16133;49.486;12.176;2023-03-12T07:55:05;97120.75;;;1.97;100.00
29045;BME280;16133;49.486;12.176;2023-03-12T07:57:31;97115.31;;;2.19;100.00
29045;BME280;16133;49.486;12.176;2023-03-12T07:59:56;97114.38;;;2.39;100.00
29045;BME280;16133;49.486;12.176;2023-03-12T08:02:22;97105.41;;;2.61;97.81
29045;BME280;16133;49.486;12.176;2023-03-12T08:04:47;97111.63;;;2.89;96.27
29045;BME280;16133;49.486;12.176;2023-03-12T08:07:13;97120.41;;;3.07;94.05
29045;BME280;16133;49.486;12.176;2023-03-12T08:09:38;97111.31;;;3.21;93.15
29045;BME280;16133;49.486;12.176;2023-03-12T08:12:08;97113.91;;;3.30;90.97
29045;BME280;16133;49.486;12.176;2023-03-12T08:14:34;97111.69;;;3.26;88.59
29045;BME280;16133;49.486;12.176;2023-03-12T08:17:00;97113.91;;;3.30;88.48
29045;BME280;16133;49.486;12.176;2023-03-12T08:19:26;97114.75;;;3.21;87.49
29045;BME280;16133;49.486;12.176;2023-03-12T08:21:52;97115.72;;;3.20;87.43
29045;BME280;16133;49.486;12.176;2023-03-12T08:24:19;97110.59;;;3.28;86.61
29045;BME280;16133;49.486;12.176;2023-03-12T08:26:45;97103.94;;;3.34;83.67
29045;BME280;16133;49.486;12.176;2023-03-12T08:29:11;97107.94;;;3.48;84.11
29045;BME280;16133;49.486;12.176;2023-03-12T08:31:37;97076.75;;;3.45;84.10
29045;BME280;16133;49.486;12.176;2023-03-12T08:34:02;97103.28;;;3.69;83.94
29045;BME280;16133;49.486;12.176;2023-03-12T08:36:28;97110.19;;;3.70;83.38
29045;BME280;16133;49.486;12.176;2023-03-12T08:38:54;97110.41;;;3.86;83.17
29045;BME280;16133;49.486;12.176;2023-03-12T08:41:19;97121.28;;;4.18;80.10
29045;BME280;16133;49.486;12.176;2023-03-12T08:43:45;97106.44;;;4.45;78.62
29045;BME280;16133;49.486;12.176;2023-03-12T08:46:11;97112.91;;;4.68;77.30
29045;BME280;16133;49.486;12.176;2023-03-12T08:48:36;97109.00;;;4.72;75.45
29045;BME280;16133;49.486;12.176;2023-03-12T08:51:02;97114.25;;;4.72;74.26
29045;BME280;16133;49.486;12.176;2023-03-12T08:53:29;97110.75;;;4.81;73.91
29045;BME280;16133;49.486;12.176;2023-03-12T08:55:55;97080.25;;;4.88;74.22
29045;BME280;16133;49.486;12.176;2023-03-12T08:58:22;97117.47;;;5.45;74.09
29045;BME280;16133;49.486;12.176;2023-03-12T09:00:49;97114.78;;;5.88;72.36
29045;BME280;16133;49.486;12.176;2023-03-12T09:03:14;97104.41;;;6.20;70.68
29045;BME280;16133;49.486;12.176;2023-03-12T09:05:41;97097.69;;;6.42;69.65
29045;BME280;16133;49.486;12.176;2023-03-12T09:08:07;97102.19;;;6.58;68.06
29045;BME280;16133;49.486;12.176;2023-03-12T09:10:33;97091.78;;;6.64;67.61
29045;BME280;16133;49.486;12.176;2023-03-12T09:13:00;97090.50;;;6.77;68.50
29045;BME280;16133;49.486;12.176;2023-03-12T09:15:26;97092.66;;;6.89;66.82
29045;BME280;16133;49.486;12.176;2023-03-12T09:17:52;97097.59;;;7.00;65.76
29045;BME280;16133;49.486;12.176;2023-03-12T09:20:18;97102.53;;;7.03;64.54
29045;BME280;16133;49.486;12.176;2023-03-12T09:22:43;97099.06;;;7.03;64.30
29045;BME280;16133;49.486;12.176;2023-03-12T09:25:10;97100.25;;;7.08;64.41
29045;BME280;16133;49.486;12.176;2023-03-12T09:27:40;97096.59;;;7.09;63.80
29045;BME280;16133;49.486;12.176;2023-03-12T09:30:09;97084.56;;;7.15;62.70
29045;BME280;16133;49.486;12.176;2023-03-12T09:32:34;97088.53;;;7.03;62.48
29045;BME280;16133;49.486;12.176;2023-03-12T09:35:00;97083.75;;;6.98;62.32
29045;BME280;16133;49.486;12.176;2023-03-12T09:37:25;97086.56;;;7.05;63.60
29045;BME280;16133;49.486;12.176;2023-03-12T09:39:51;97075.50;;;7.09;63.00
29045;BME280;16133;49.486;12.176;2023-03-12T09:42:23;97068.91;;;7.05;63.22
29045;BME280;16133;49.486;12.176;2023-03-12T09:44:50;97073.69;;;6.86;63.07
29045;BME280;16133;49.486;12.176;2023-03-12T09:47:25;97069.41;;;6.77;64.53
29045;BME280;16133;49.486;12.176;2023-03-12T09:50:00;97064.94;;;6.61;64.66
29045;BME280;16133;49.486;12.176;2023-03-12T09:53:00;97060.00;;;6.58;66.07
29045;BME280;16133;49.486;12.176;2023-03-12T09:55:24;97062.66;;;6.66;63.93
29045;BME280;16133;49.486;12.176;2023-03-12T09:57:51;97063.16;;;6.86;64.69
29045;BME280;16133;49.486;12.176;2023-03-12T10:00:22;97072.53;;;7.04;64.27
29045;BME280;16133;49.486;12.176;2023-03-12T10:03:17;97069.22;;;7.27;64.32
29045;BME280;16133;49.486;12.176;2023-03-12T10:08:33;97066.47;;;7.67;62.70
29045;BME280;16133;49.486;12.176;2023-03-12T10:26:59;97051.38;;;8.99;59.90
29045;BME280;16133;49.486;12.176;2023-03-12T10:29:31;97053.25;;;9.28;58.85
29045;BME280;16133;49.486;12.176;2023-03-12T10:35:13;97053.94;;;9.59;57.36
29045;BME280;16133;49.486;12.176;2023-03-12T10:37:52;97059.53;;;9.49;56.74
29045;BME280;16133;49.486;12.176;2023-03-12T10:40:30;97056.97;;;9.56;56.05
29045;BME280;16133;49.486;12.176;2023-03-12T10:42:58;97054.69;;;9.68;56.67
29045;BME280;16133;49.486;12.176;2023-03-12T10:45:46;97058.91;;;9.77;56.75
29045;BME280;16133;49.486;12.176;2023-03-12T10:48:22;97065.19;;;9.76;55.32
29045;BME280;16133;49.486;12.176;2023-03-12T10:51:11;97069.66;;;9.75;55.99
29045;BME280;16133;49.486;12.176;2023-03-12T10:53:40;97067.03;;;9.60;55.98
29045;BME280;16133;49.486;12.176;2023-03-12T10:56:09;97060.81;;;9.53;56.23
29045;BME280;16133;49.486;12.176;2023-03-12T10:58:49;97052.28;;;9.43;56.71
29045;BME280;16133;49.486;12.176;2023-03-12T11:01:22;97053.66;;;9.39;56.30
29045;BME280;16133;49.486;12.176;2023-03-12T11:03:49;97053.78;;;9.46;55.31
29045;BME280;16133;49.486;12.176;2023-03-12T11:06:27;97043.56;;;9.57;57.03
29045;BME280;16133;49.486;12.176;2023-03-12T11:09:04;97046.47;;;9.63;55.41
29045;BME280;16133;49.486;12.176;2023-03-12T11:11:33;97036.44;;;9.58;56.00
29045;BME280;16133;49.486;12.176;2023-03-12T11:16:32;97037.22;;;9.44;55.25
29045;BME280;16133;49.486;12.176;2023-03-12T11:19:00;97020.25;;;9.24;57.01
29045;BME280;16133;49.486;12.176;2023-03-12T11:21:27;97035.09;;;9.25;57.87
29045;BME280;16133;49.486;12.176;2023-03-12T11:26:46;97042.22;;;9.24;58.12
29045;BME280;16133;49.486;12.176;2023-03-12T11:32:24;97026.25;;;9.47;58.23
29045;BME280;16133;49.486;12.176;2023-03-12T11:34:55;97026.75;;;9.50;56.01
29045;BME280;16133;49.486;12.176;2023-03-12T11:50:45;97030.09;;;9.15;57.29
29045;BME280;16133;49.486;12.176;2023-03-12T12:09:36;97030.00;;;8.40;61.07
29045;BME280;16133;49.486;12.176;2023-03-12T12:14:59;97020.31;;;8.25;61.84
29045;BME280;16133;49.486;12.176;2023-03-12T12:23:01;97001.69;;;8.49;64.49
29045;BME280;16133;49.486;12.176;2023-03-12T12:31:19;97012.31;;;8.41;65.78
29045;BME280;16133;49.486;12.176;2023-03-12T12:36:16;97011.94;;;7.82;69.22
29045;BME280;16133;49.486;12.176;2023-03-12T12:41:20;97009.47;;;7.42;72.58
29045;BME280;16133;49.486;12.176;2023-03-12T12:43:51;97012.16;;;7.26;74.33
29045;BME280;16133;49.486;12.176;2023-03-12T12:46:25;96996.19;;;7.11;74.81
29045;BME280;16133;49.486;12.176;2023-03-12T12:49:01;97003.59;;;7.15;76.26
29045;BME280;16133;49.486;12.176;2023-03-12T12:51:31;96996.19;;;7.03;76.91
29045;BME280;16133;49.486;12.176;2023-03-12T12:54:03;97003.47;;;7.09;76.70
29045;BME280;16133;49.486;12.176;2023-03-12T13:02:04;96984.19;;;6.76;81.09
29045;BME280;16133;49.486;12.176;2023-03-12T13:04:38;96981.91;;;6.81;82.23
29045;BME280;16133;49.486;12.176;2023-03-12T13:09:44;96989.47;;;6.92;84.41
29045;BME280;16133;49.486;12.176;2023-03-12T13:12:19;96984.19;;;7.00;84.22
29045;BME280;16133;49.486;12.176;2023-03-12T13:14:47;96999.81;;;7.02;84.59
29045;BME280;16133;49.486;12.176;2023-03-12T13:22:48;96991.63;;;6.72;83.89
29045;BME280;16133;49.486;12.176;2023-03-12T13:27:59;96988.19;;;6.40;86.87
29045;BME280;16133;49.486;12.176;2023-03-12T13:48:17;96977.44;;;5.59;98.20
29045;BME280;16133;49.486;12.176;2023-03-12T13:50:53;96988.78;;;5.59;99.22
29045;BME280;16133;49.486;12.176;2023-03-12T13:53:23;96980.66;;;5.45;100.00
29045;BME280;16133;49.486;12.176;2023-03-12T13:56:00;96976.22;;;5.45;100.00
29045;BME280;16133;49.486;12.176;2023-03-12T13:58:27;96976.53;;;5.42;100.00
29045;BME280;16133;49.486;12.176;2023-03-12T14:00:54;96976.22;;;5.45;100.00
29045;BME280;16133;49.486;12.176;2023-03-12T14:05:56;96963.91;;;5.54;100.00
29045;BME280;16133;49.486;12.176;2023-03-12T14:08:41;96967.03;;;5.49;100.00
29045;BME280;16133;49.486;12.176;2023-03-12T14:16:39;96960.81;;;5.58;100.00
29045;BME280;16133;49.486;12.176;2023-03-12T14:19:10;96968.88;;;5.65;100.00
29045;BME280;16133;49.486;12.176;2023-03-12T14:21:38;96973.16;;;5.58;100.00
29045;BME280;16133;49.486;12.176;2023-03-12T14:24:06;96967.03;;;5.49;100.00
29045;BME280;16133;49.486;12.176;2023-03-12T14:26:35;96974.06;;;5.41;100.00
29045;BME280;16133;49.486;12.176;2023-03-12T14:29:16;96976.97;;;5.29;100.00
29045;BME280;16133;49.486;12.176;2023-03-12T14:31:43;96978.13;;;5.27;100.00
29045;BME280;16133;49.486;12.176;2023-03-12T14:34:23;96979.00;;;5.10;100.00
29045;BME280;16133;49.486;12.176;2023-03-12T14:40:01;96971.94;;;5.10;100.00
29045;BME280;16133;49.486;12.176;2023-03-12T14:42:33;96980.47;;;5.04;100.00
29045;BME280;16133;49.486;12.176;2023-03-12T14:45:11;96973.22;;;4.98;100.00
29045;BME280;16133;49.486;12.176;2023-03-12T14:47:52;96965.16;;;5.00;100.00
29045;BME280;16133;49.486;12.176;2023-03-12T14:52:48;96963.53;;;5.07;100.00
29045;BME280;16133;49.486;12.176;2023-03-12T14:55:18;96949.59;;;5.14;100.00
29045;BME280;16133;49.486;12.176;2023-03-12T14:57:45;96954.56;;;5.17;100.00
29045;BME280;16133;49.486;12.176;2023-03-12T15:00:28;96955.38;;;5.18;100.00
29045;BME280;16133;49.486;12.176;2023-03-12T15:02:56;96951.16;;;5.25;100.00